Time;durP1;ratioP1;P1;durP2;ratioP2;P2;SDS_P1;SDS_P2;PMS_P1;PMS_P2;Temp;Humidity;BMP_temperature;BMP_pressure;BME280_temperature;BME280_humidity;BME280_pressure;Samples;Min_cycle;Max_cycle;Signal;HPM_P1;HPM_P2
2022/08/07 05:00:35;;;;;;;2.00;1.60;;;19.50;97.20;;;;;;1721912;28;20197;-72
2022/08/07 05:01:34;;;;;;;1.80;1.70;;;19.50;97.20;;;;;;1722081;28;20208;-72
2022/08/07 05:02:31;;;;;;;2.30;1.58;;;19.50;97.20;;;;;;1721923;28;20268;-72
2022/08/07 05:03:26;;;;;;;2.05;1.65;;;19.50;97.20;;;;;;1721770;28;20201;-71
2022/08/07 05:04:31;;;;;;;2.75;1.55;;;19.50;97.20;;;;;;1721888;28;20692;-71
2022/08/07 05:05:40;;;;;;;3.05;1.70;;;19.60;97.20;;;;;;1721850;28;20228;-71
2022/08/07 05:06:36;;;;;;;4.05;2.20;;;19.60;97.20;;;;;;1721726;28;20201;-71
2022/08/07 05:07:36;;;;;;;1.15;1.05;;;19.60;97.20;;;;;;1722052;28;20606;-71
2022/08/07 05:08:35;;;;;;;2.20;1.88;;;19.60;97.20;;;;;;1722028;28;20746;-71
2022/08/07 05:09:32;;;;;;;3.85;1.80;;;19.60;97.20;;;;;;1721990;28;20201;-71
2022/08/07 05:10:29;;;;;;;2.75;2.05;;;19.60;97.20;;;;;;1721839;28;20227;-71
2022/08/07 05:11:27;;;;;;;2.55;1.98;;;19.70;97.20;;;;;;1721863;28;20232;-71
2022/08/07 05:12:22;;;;;;;5.97;1.80;;;19.70;97.20;;;;;;1721045;28;20201;-71
2022/08/07 05:13:17;;;;;;;1.95;1.83;;;19.70;97.20;;;;;;1721880;28;20691;-71
2022/08/07 05:14:11;;;;;;;2.13;1.80;;;19.70;97.20;;;;;;1721709;28;20213;-71
2022/08/07 05:15:15;;;;;;;2.47;1.90;;;19.70;97.20;;;;;;1721839;28;20201;-72
2022/08/07 05:16:11;;;;;;;2.15;1.95;;;19.80;97.20;;;;;;1721880;28;20297;-72
2022/08/07 05:17:06;;;;;;;2.40;1.77;;;19.80;97.20;;;;;;1721487;28;20208;-72
2022/08/07 05:18:00;;;;;;;1.60;1.50;;;19.80;97.20;;;;;;1721765;28;20209;-71
2022/08/07 05:18:56;;;;;;;3.00;1.75;;;19.80;97.20;;;;;;1721593;28;20647;-71
2022/08/07 05:19:50;;;;;;;2.50;1.85;;;19.80;97.20;;;;;;1721335;28;20205;-71
2022/08/07 05:20:46;;;;;;;2.63;2.03;;;19.80;97.20;;;;;;1715109;28;20233;-71
2022/08/07 05:21:39;;;;;;;1.75;1.60;;;19.80;97.20;;;;;;1715999;28;20202;-71
2022/08/07 05:22:35;;;;;;;2.28;1.70;;;19.80;97.20;;;;;;1721796;28;20268;-72
2022/08/07 05:23:31;;;;;;;1.90;1.80;;;19.80;97.20;;;;;;1721762;28;20201;-71
2022/08/07 05:24:24;;;;;;;2.13;1.70;;;19.80;97.20;;;;;;1721708;28;20189;-71
2022/08/07 05:25:18;;;;;;;2.22;1.85;;;19.90;97.20;;;;;;1721768;28;20227;-71
2022/08/07 05:26:13;;;;;;;2.10;1.70;;;19.90;97.20;;;;;;1721640;28;20235;-71
2022/08/07 05:27:07;;;;;;;1.85;1.73;;;19.90;97.20;;;;;;1721331;28;20197;-71
2022/08/07 05:28:00;;;;;;;2.42;2.00;;;19.90;97.20;;;;;;1721678;28;20197;-71
2022/08/07 05:28:53;;;;;;;1.70;1.60;;;19.90;97.20;;;;;;1721785;28;20225;-71
2022/08/07 05:29:47;;;;;;;2.00;1.90;;;19.90;97.20;;;;;;1721681;28;20627;-71
2022/08/07 05:30:39;;;;;;;2.10;1.98;;;19.90;97.20;;;;;;1721402;28;20193;-71
2022/08/07 05:31:37;;;;;;;2.38;1.88;;;19.90;97.20;;;;;;1721479;28;20209;-71
2022/08/07 05:32:28;;;;;;;2.45;1.90;;;19.90;97.20;;;;;;1715121;28;20314;-71
2022/08/07 05:33:21;;;;;;;3.10;1.95;;;20.00;97.20;;;;;;1715000;28;20218;-71
2022/08/07 05:34:15;;;;;;;2.10;1.90;;;20.00;97.20;;;;;;1721135;28;20692;-71
2022/08/07 05:35:10;;;;;;;1.80;1.70;;;20.00;97.20;;;;;;1721805;28;20205;-71
2022/08/07 05:36:03;;;;;;;2.55;1.73;;;20.00;97.20;;;;;;1721519;28;20255;-71
2022/08/07 05:36:56;;;;;;;2.83;2.17;;;20.00;97.20;;;;;;1721444;28;20264;-72
2022/08/07 05:37:47;;;;;;;2.63;2.17;;;20.10;97.20;;;;;;1721519;28;20566;-71
2022/08/07 05:38:40;;;;;;;2.00;1.80;;;20.10;97.20;;;;;;1721679;28;20633;-71
2022/08/07 05:39:31;;;;;;;2.58;2.20;;;20.10;97.20;;;;;;1721746;28;20255;-71
2022/08/07 05:40:23;;;;;;;2.42;2.00;;;20.10;97.20;;;;;;1721341;28;20212;-71
2022/08/07 05:41:15;;;;;;;3.65;2.30;;;20.10;97.20;;;;;;1721643;28;20205;-72
2022/08/07 05:42:07;;;;;;;3.30;3.00;;;20.20;97.20;;;;;;1721748;28;20204;-71
2022/08/07 05:42:58;;;;;;;4.85;3.50;;;20.20;97.20;;;;;;1721699;28;20214;-71
2022/08/07 05:43:52;;;;;;;3.47;3.17;;;20.20;97.20;;;;;;1721831;28;20208;-70
2022/08/07 05:44:43;;;;;;;4.15;3.25;;;20.20;97.20;;;;;;1722019;28;20197;-71
2022/08/07 05:45:34;;;;;;;3.57;3.27;;;20.30;97.20;;;;;;1721785;28;20276;-71
2022/08/07 05:46:25;;;;;;;3.80;3.50;;;20.30;97.20;;;;;;1721694;28;20449;-71
2022/08/07 05:47:19;;;;;;;3.80;3.50;;;20.30;97.20;;;;;;1721591;28;20692;-71
2022/08/07 05:48:09;;;;;;;3.90;3.53;;;20.30;97.20;;;;;;1721396;28;20828;-71
2022/08/07 05:49:04;;;;;;;3.67;3.37;;;20.40;97.20;;;;;;1721617;28;20291;-71
2022/08/07 05:49:55;;;;;;;3.95;3.65;;;20.40;97.20;;;;;;1721268;28;20201;-71
2022/08/07 05:50:47;;;;;;;3.95;3.65;;;20.40;97.20;;;;;;1721436;28;20189;-71
2022/08/07 05:51:40;;;;;;;4.60;4.20;;;20.40;97.20;;;;;;1721642;28;20204;-71
2022/08/07 05:52:32;;;;;;;4.65;3.97;;;20.40;97.20;;;;;;1721467;28;20215;-72
2022/08/07 05:53:23;;;;;;;5.57;4.10;;;20.40;97.20;;;;;;1721599;28;20205;-71
2022/08/07 05:54:16;;;;;;;4.47;4.10;;;20.50;97.20;;;;;;1721623;28;20281;-71
2022/08/07 05:55:08;;;;;;;5.10;4.70;;;20.50;97.20;;;;;;1721614;28;20205;-71
2022/08/07 05:56:01;;;;;;;4.75;4.10;;;20.50;97.20;;;;;;1721524;28;20560;-71
2022/08/07 05:56:53;;;;;;;4.50;4.10;;;20.50;97.20;;;;;;1721028;28;20296;-71
2022/08/07 05:57:47;;;;;;;6.43;4.63;;;20.50;97.20;;;;;;1721540;28;20675;-71
2022/08/07 05:58:38;;;;;;;4.18;3.83;;;20.50;97.20;;;;;;1721536;28;20201;-71
2022/08/07 05:59:35;;;;;;;4.60;4.20;;;20.60;97.20;;;;;;1721600;28;20701;-71
2022/08/07 06:00:27;;;;;;;7.30;3.90;;;20.60;97.20;;;;;;1721418;28;20221;-71
2022/08/07 06:01:20;;;;;;;4.65;4.35;;;20.60;97.20;;;;;;1721587;28;20197;-71
2022/08/07 06:02:14;;;;;;;4.70;4.30;;;20.60;97.20;;;;;;1721368;28;20209;-71
2022/08/07 06:03:09;;;;;;;5.05;4.47;;;20.70;97.20;;;;;;1721510;28;20205;-71
2022/08/07 06:04:01;;;;;;;4.70;4.25;;;20.70;97.20;;;;;;1721581;28;20210;-71
2022/08/07 06:04:56;;;;;;;3.80;3.55;;;20.70;97.20;;;;;;1721502;28;20201;-71
2022/08/07 06:05:48;;;;;;;4.03;3.65;;;20.70;97.20;;;;;;1721273;28;20198;-71
2022/08/07 06:06:40;;;;;;;4.43;4.13;;;20.80;97.20;;;;;;1720430;28;20201;-72
2022/08/07 06:07:31;;;;;;;4.68;4.22;;;20.80;97.20;;;;;;1721528;28;20565;-71
2022/08/07 06:08:24;;;;;;;4.28;3.97;;;20.80;97.20;;;;;;1721488;28;20205;-72
2022/08/07 06:09:16;;;;;;;4.65;4.25;;;20.80;97.20;;;;;;1721474;28;20205;-72
2022/08/07 06:10:10;;;;;;;3.70;3.50;;;20.80;97.20;;;;;;1721465;28;20232;-71
2022/08/07 06:11:01;;;;;;;4.63;4.32;;;20.90;97.20;;;;;;1721513;28;20212;-71
2022/08/07 06:11:53;;;;;;;4.50;4.10;;;20.90;97.20;;;;;;1721204;28;20289;-71
2022/08/07 06:12:44;;;;;;;5.20;4.70;;;20.90;97.20;;;;;;1721527;28;20462;-71
2022/08/07 06:13:36;;;;;;;4.53;4.13;;;21.00;97.20;;;;;;1721099;28;20220;-71
2022/08/07 06:14:27;;;;;;;4.28;3.97;;;21.00;97.20;;;;;;1721266;28;20843;-71
2022/08/07 06:15:20;;;;;;;4.53;4.13;;;21.00;97.20;;;;;;1721434;28;20582;-72
2022/08/07 06:16:13;;;;;;;5.25;4.30;;;21.00;97.20;;;;;;1721494;28;20212;-71
2022/08/07 06:17:07;;;;;;;3.95;3.65;;;21.10;97.20;;;;;;1721210;28;20201;-71
2022/08/07 06:17:58;;;;;;;4.60;4.28;;;21.10;97.20;;;;;;1721313;28;20293;-71
2022/08/07 06:18:53;;;;;;;5.03;4.53;;;21.10;97.20;;;;;;1721492;28;20212;-71
2022/08/07 06:19:45;;;;;;;5.10;4.72;;;21.10;97.20;;;;;;1716035;28;20202;-71
2022/08/07 06:20:38;;;;;;;5.35;4.95;;;21.20;97.20;;;;;;1714608;28;20234;-71
2022/08/07 06:21:29;;;;;;;4.90;4.53;;;21.20;97.20;;;;;;1714781;28;20206;-71
2022/08/07 06:22:21;;;;;;;4.65;4.25;;;21.20;97.20;;;;;;1714759;28;20228;-71
2022/08/07 06:23:12;;;;;;;4.70;4.40;;;21.20;97.20;;;;;;1719940;28;20204;-71
2022/08/07 06:24:05;;;;;;;6.10;4.60;;;21.20;97.20;;;;;;1721435;28;20284;-71
2022/08/07 06:24:57;;;;;;;4.93;4.55;;;21.20;97.20;;;;;;1721439;28;20467;-71
2022/08/07 06:25:49;;;;;;;5.00;4.60;;;21.20;97.20;;;;;;1721373;28;20213;-71
2022/08/07 06:26:41;;;;;;;4.82;4.43;;;21.20;97.20;;;;;;1720994;28;20231;-71
2022/08/07 06:27:33;;;;;;;4.70;4.30;;;21.30;97.20;;;;;;1721432;28;20224;-71
2022/08/07 06:28:24;;;;;;;5.25;4.72;;;21.20;97.20;;;;;;1721333;28;20228;-71
2022/08/07 06:29:15;;;;;;;4.80;4.40;;;21.30;97.20;;;;;;1721383;28;20292;-71
2022/08/07 06:30:08;;;;;;;4.80;4.40;;;21.30;97.20;;;;;;1721377;28;20811;-71
2022/08/07 06:30:58;;;;;;;5.65;4.88;;;21.30;97.20;;;;;;1721400;28;20217;-71
2022/08/07 06:31:50;;;;;;;5.17;4.77;;;21.30;97.20;;;;;;1721341;28;20292;-71
2022/08/07 06:32:41;;;;;;;4.90;4.50;;;21.30;97.20;;;;;;1721410;28;20713;-71
2022/08/07 06:33:33;;;;;;;5.10;3.97;;;21.30;97.20;;;;;;1721377;28;20638;-70
2022/08/07 06:34:26;;;;;;;4.95;4.55;;;21.30;97.20;;;;;;1721346;28;20923;-71
2022/08/07 06:35:18;;;;;;;4.35;3.70;;;21.30;97.20;;;;;;1721366;28;20205;-71
2022/08/07 06:36:09;;;;;;;5.10;4.60;;;21.40;97.20;;;;;;1721339;28;20213;-71
2022/08/07 06:37:01;;;;;;;4.88;4.38;;;21.40;97.20;;;;;;1721225;28;20657;-71
2022/08/07 06:37:52;;;;;;;4.65;4.25;;;21.40;97.20;;;;;;1721251;28;20212;-71
2022/08/07 06:38:44;;;;;;;4.60;4.20;;;21.40;97.20;;;;;;1721347;28;20203;-71
2022/08/07 06:39:35;;;;;;;5.05;4.05;;;21.40;97.20;;;;;;1721316;28;20443;-71
2022/08/07 06:40:29;;;;;;;4.82;4.32;;;21.50;97.20;;;;;;1720482;28;20585;-71
2022/08/07 06:41:25;;;;;;;5.15;4.65;;;21.50;97.20;;;;;;1721332;28;20205;-71
2022/08/07 06:42:20;;;;;;;5.97;4.38;;;21.50;97.20;;;;;;1721407;28;20684;-71
2022/08/07 06:43:12;;;;;;;5.65;3.90;;;21.50;97.20;;;;;;1721297;28;20209;-71
2022/08/07 06:44:06;;;;;;;4.85;4.35;;;21.60;97.20;;;;;;1721307;28;20201;-71
2022/08/07 06:44:58;;;;;;;4.60;4.20;;;21.60;97.20;;;;;;1721241;28;20206;-71
2022/08/07 06:45:50;;;;;;;4.75;4.35;;;21.60;97.20;;;;;;1721264;28;20236;-71
2022/08/07 06:46:41;;;;;;;4.88;4.47;;;21.60;97.20;;;;;;1720903;28;20229;-71
2022/08/07 06:47:33;;;;;;;4.95;4.47;;;21.60;97.20;;;;;;1721212;28;20664;-71
2022/08/07 06:48:24;;;;;;;9.57;4.50;;;21.70;97.20;;;;;;1721191;28;20201;-71
2022/08/07 06:49:16;;;;;;;5.20;4.80;;;21.70;97.20;;;;;;1721376;28;20631;-71
2022/08/07 06:50:09;;;;;;;5.78;5.22;;;21.70;97.20;;;;;;1721184;28;20208;-71
2022/08/07 06:51:07;;;;;;;4.63;4.22;;;21.70;97.20;;;;;;1721271;28;20688;-71
2022/08/07 06:52:00;;;;;;;4.70;4.30;;;21.70;97.20;;;;;;1721261;28;20573;-71
2022/08/07 06:52:55;;;;;;;5.00;4.60;;;21.70;97.20;;;;;;1721262;28;20204;-71
2022/08/07 06:53:46;;;;;;;5.65;4.60;;;21.70;97.20;;;;;;1721278;28;20216;-71
2022/08/07 06:54:40;;;;;;;4.40;4.10;;;21.80;97.20;;;;;;1721254;28;20201;-71
2022/08/07 06:55:32;;;;;;;5.80;5.30;;;21.80;97.20;;;;;;1721211;28;20208;-71
2022/08/07 06:57:44;;;;;;;5.15;4.65;;;21.80;97.20;;;;;;1754110;28;20522;-71
2022/08/07 06:58:36;;;;;;;5.22;4.75;;;21.80;97.20;;;;;;1754028;28;20217;-69
2022/08/07 06:59:35;;;;;;;4.90;4.50;;;21.80;97.20;;;;;;1754055;28;20243;-70
2022/08/07 07:00:29;;;;;;;4.60;4.20;;;21.90;97.20;;;;;;1754097;28;20229;-70
2022/08/07 07:01:22;;;;;;;4.10;3.80;;;21.90;97.20;;;;;;1754008;28;20198;-69
2022/08/07 07:02:17;;;;;;;4.80;4.20;;;21.90;97.20;;;;;;1753966;28;20581;-70
2022/08/07 07:03:09;;;;;;;4.30;4.00;;;22.00;97.20;;;;;;1754089;28;20209;-70
2022/08/07 07:04:02;;;;;;;3.80;3.50;;;22.00;97.20;;;;;;1754071;28;20197;-70
2022/08/07 07:04:54;;;;;;;4.07;3.67;;;22.00;97.20;;;;;;1753968;28;20194;-69
2022/08/07 07:05:45;;;;;;;4.90;4.47;;;22.00;97.20;;;;;;1754062;28;20217;-70
2022/08/07 07:06:37;;;;;;;3.80;3.50;;;22.10;97.20;;;;;;1753687;28;20198;-70
2022/08/07 07:07:28;;;;;;;4.57;4.18;;;22.10;97.20;;;;;;1753953;28;20194;-69
2022/08/07 07:08:25;;;;;;;3.57;3.27;;;22.10;97.20;;;;;;1753919;28;20281;-70
2022/08/07 07:09:19;;;;;;;4.13;3.70;;;22.20;97.20;;;;;;1754005;28;20335;-70
2022/08/07 07:10:11;;;;;;;4.05;3.45;;;22.20;97.20;;;;;;1753847;28;20220;-70
2022/08/07 07:11:03;;;;;;;3.83;3.40;;;22.20;97.20;;;;;;1754013;28;20602;-70
2022/08/07 07:12:22;;;;;;;3.80;3.50;;;22.20;97.20;;;;;;1753987;28;20576;-70
2022/08/07 07:13:18;;;;;;;3.72;3.33;;;22.20;97.20;;;;;;1753936;28;20202;-70
2022/08/07 07:14:11;;;;;;;3.30;3.10;;;22.30;97.20;;;;;;1753962;28;20210;-70
2022/08/07 07:15:07;;;;;;;5.68;3.42;;;22.30;97.20;;;;;;1753995;28;20209;-70
2022/08/07 07:16:06;;;;;;;3.78;3.40;;;22.30;97.20;;;;;;1753917;28;20608;-70
2022/08/07 07:17:03;;;;;;;3.20;2.90;;;22.30;97.20;;;;;;1753577;28;20202;-70
2022/08/07 07:18:00;;;;;;;5.40;3.40;;;22.40;97.20;;;;;;1753888;28;20216;-70
2022/08/07 07:18:58;;;;;;;3.10;2.80;;;22.40;97.20;;;;;;1753945;28;20202;-70
2022/08/07 07:19:57;;;;;;;3.28;2.97;;;22.40;97.20;;;;;;1753886;28;20668;-70
2022/08/07 07:20:52;;;;;;;3.08;2.80;;;22.40;97.20;;;;;;1773071;22;20596;-73
2022/08/07 07:21:45;;;;;;;4.63;2.88;;;22.50;97.20;;;;;;1746902;28;20206;-72
2022/08/07 07:22:35;;;;;;;2.72;2.53;;;22.50;97.20;;;;;;1746933;28;20605;-72
2022/08/07 07:23:28;;;;;;;2.43;2.23;;;22.50;97.20;;;;;;1746907;28;20203;-73
2022/08/07 07:24:19;;;;;;;3.67;2.30;;;22.50;97.20;;;;;;1746848;28;20203;-72
2022/08/07 07:25:13;;;;;;;2.90;2.70;;;22.50;97.20;;;;;;1746870;28;20281;-72
2022/08/07 07:26:08;;;;;;;2.40;2.20;;;22.50;97.20;;;;;;1746862;28;20952;-72
2022/08/07 07:27:02;;;;;;;2.60;2.40;;;22.50;97.20;;;;;;1746586;28;20203;-72
2022/08/07 07:27:57;;;;;;;2.83;2.60;;;22.60;97.20;;;;;;1746786;28;20785;-72
2022/08/07 07:28:55;;;;;;;2.53;2.33;;;22.60;97.20;;;;;;1746938;28;20629;-73
2022/08/07 07:29:50;;;;;;;2.92;2.22;;;22.60;97.20;;;;;;1746837;28;20206;-72
2022/08/07 07:30:47;;;;;;;2.92;2.40;;;22.60;97.20;;;;;;1746782;28;20260;-72
2022/08/07 07:31:41;;;;;;;4.35;2.20;;;22.60;97.20;;;;;;1746865;28;20199;-72
2022/08/07 07:32:37;;;;;;;3.35;2.33;;;22.70;97.20;;;;;;1746491;28;20230;-72
2022/08/07 07:33:31;;;;;;;2.70;2.50;;;22.70;97.20;;;;;;1746738;28;20264;-72
2022/08/07 07:34:28;;;;;;;2.20;2.00;;;22.70;97.20;;;;;;1746855;28;20228;-72
2022/08/07 07:35:19;;;;;;;2.88;2.60;;;22.70;97.20;;;;;;1746965;28;20210;-72
2022/08/07 07:36:11;;;;;;;2.35;2.25;;;22.70;97.20;;;;;;1746922;28;20198;-72
2022/08/07 07:37:03;;;;;;;2.50;2.30;;;22.70;97.20;;;;;;1746546;28;20211;-73
2022/08/07 07:37:55;;;;;;;2.42;2.22;;;22.70;97.20;;;;;;1746724;28;20630;-72
2022/08/07 07:38:47;;;;;;;2.50;2.30;;;22.70;97.20;;;;;;1746750;28;20209;-73
2022/08/07 07:39:40;;;;;;;5.22;2.50;;;22.70;97.20;;;;;;1746733;28;20195;-72
2022/08/07 07:40:32;;;;;;;2.83;2.20;;;22.70;97.20;;;;;;1746620;28;20202;-72
2022/08/07 07:41:26;;;;;;;2.60;2.40;;;22.70;97.20;;;;;;1746874;28;20198;-73
2022/08/07 07:42:20;;;;;;;3.60;2.15;;;22.70;97.20;;;;;;1746445;28;20688;-72
2022/08/07 07:43:14;;;;;;;2.50;2.30;;;22.70;97.20;;;;;;1746742;28;20194;-72
2022/08/07 07:44:09;;;;;;;2.00;1.90;;;22.80;97.20;;;;;;1746740;28;20203;-72
2022/08/07 07:45:03;;;;;;;3.38;2.10;;;22.80;97.20;;;;;;1746771;28;20573;-72
2022/08/07 07:45:54;;;;;;;2.58;2.38;;;22.80;97.20;;;;;;1746699;28;20206;-72
2022/08/07 07:46:48;;;;;;;2.53;2.33;;;22.80;97.20;;;;;;1746492;28;20222;-72
2022/08/07 07:47:42;;;;;;;2.40;2.20;;;22.80;97.20;;;;;;1746627;28;20440;-72
2022/08/07 07:48:36;;;;;;;2.42;2.22;;;22.80;97.20;;;;;;1746756;28;20610;-72
2022/08/07 07:49:28;;;;;;;2.13;2.00;;;22.80;97.20;;;;;;1746745;28;20691;-73
2022/08/07 07:50:22;;;;;;;3.53;2.13;;;22.80;97.20;;;;;;1746444;28;20203;-72
2022/08/07 07:51:15;;;;;;;12.18;2.40;;;22.80;97.20;;;;;;1746764;28;20348;-72
2022/08/07 07:52:09;;;;;;;2.20;2.00;;;22.80;97.20;;;;;;1746663;28;20216;-72
2022/08/07 07:53:01;;;;;;;2.10;1.90;;;22.80;97.20;;;;;;1746640;28;20206;-72
2022/08/07 07:53:55;;;;;;;3.65;2.10;;;22.80;97.20;;;;;;1746657;28;20733;-72
2022/08/07 07:54:48;;;;;;;3.05;2.00;;;22.80;97.20;;;;;;1746651;28;20210;-72
2022/08/07 07:55:40;;;;;;;2.17;1.98;;;22.80;97.20;;;;;;1746637;28;20195;-72
2022/08/07 07:56:32;;;;;;;2.08;1.98;;;22.80;97.20;;;;;;1746598;28;20237;-72
2022/08/07 07:57:25;;;;;;;2.38;2.17;;;22.90;97.20;;;;;;1746476;28;20202;-72
2022/08/07 07:58:17;;;;;;;3.35;2.00;;;22.90;97.20;;;;;;1746557;28;20588;-72
2022/08/07 07:59:12;;;;;;;2.17;1.95;;;22.90;97.20;;;;;;1746586;28;20198;-72
2022/08/07 08:00:04;;;;;;;3.55;2.05;;;22.90;97.20;;;;;;1746648;28;20268;-73
2022/08/07 08:00:58;;;;;;;2.10;1.90;;;22.90;97.20;;;;;;1746396;28;20921;-72
2022/08/07 08:01:50;;;;;;;1.95;1.80;;;22.90;97.20;;;;;;1746732;28;20201;-72
2022/08/07 08:02:43;;;;;;;1.80;1.70;;;22.90;97.20;;;;;;1746744;28;20195;-73
2022/08/07 08:03:36;;;;;;;2.65;2.00;;;22.90;97.20;;;;;;1746565;28;20206;-74
2022/08/07 08:04:31;;;;;;;1.95;1.85;;;22.90;97.20;;;;;;1746601;28;20708;-73
2022/08/07 08:05:23;;;;;;;3.90;2.00;;;22.90;97.20;;;;;;1746616;28;20696;-73
2022/08/07 08:06:15;;;;;;;3.10;1.65;;;23.00;97.20;;;;;;1746565;28;20195;-73
2022/08/07 08:07:07;;;;;;;3.42;1.70;;;23.00;97.20;;;;;;1746380;28;20589;-73
2022/08/07 08:07:59;;;;;;;1.85;1.40;;;23.00;97.20;;;;;;1746548;28;20219;-74
2022/08/07 08:08:51;;;;;;;2.08;1.98;;;23.00;97.20;;;;;;1743303;28;20212;-74
2022/08/07 08:09:44;;;;;;;1.88;1.40;;;23.10;97.20;;;;;;1742192;28;20198;-73
2022/08/07 08:10:35;;;;;;;1.67;1.30;;;23.10;97.20;;;;;;1741733;28;20231;-73
2022/08/07 08:11:27;;;;;;;2.13;1.80;;;23.20;97.20;;;;;;1742023;28;20442;-73
2022/08/07 08:12:20;;;;;;;1.65;1.48;;;23.20;97.20;;;;;;1742069;28;20549;-73
2022/08/07 08:13:13;;;;;;;3.22;1.40;;;23.30;97.20;;;;;;1741979;28;20195;-73
2022/08/07 08:14:04;;;;;;;1.77;1.60;;;23.30;97.20;;;;;;1741981;28;20584;-73
2022/08/07 08:14:57;;;;;;;2.30;1.53;;;23.30;97.20;;;;;;1742173;28;20303;-73
2022/08/07 08:15:49;;;;;;;2.30;2.10;;;23.40;97.20;;;;;;1741890;28;20441;-74
2022/08/07 08:16:44;;;;;;;1.85;1.52;;;23.40;97.20;;;;;;1741809;28;20260;-73
2022/08/07 08:17:35;;;;;;;2.35;1.90;;;23.50;97.20;;;;;;1742033;28;20206;-73
2022/08/07 08:18:28;;;;;;;1.88;1.50;;;23.50;97.20;;;;;;1741956;28;20294;-74
2022/08/07 08:19:26;;;;;;;1.67;1.45;;;23.50;97.20;;;;;;1741979;28;20230;-74
2022/08/07 08:20:19;;;;;;;1.92;1.55;;;23.60;97.20;;;;;;1741972;28;20203;-73
2022/08/07 08:27:03;;;;;;;2.60;1.70;;;23.60;97.20;;;;;;1741875;28;20235;-73
2022/08/07 08:27:14;;;;;;;1.80;1.38;;;23.90;97.20;;;;;;1741805;28;20321;-73
2022/08/07 08:28:08;;;;;;;1.52;1.42;;;24.00;97.20;;;;;;1741582;28;20274;-73
2022/08/07 08:29:02;;;;;;;1.70;1.30;;;24.00;97.20;;;;;;1741743;28;20669;-73
2022/08/07 08:29:58;;;;;;;2.88;1.58;;;24.00;97.20;;;;;;1741038;28;20439;-73
2022/08/07 08:30:57;;;;;;;1.60;1.30;;;24.10;97.20;;;;;;1741203;28;20778;-73
2022/08/07 08:31:49;;;;;;;2.90;1.38;;;24.10;97.20;;;;;;1741244;28;20260;-73
2022/08/07 08:32:44;;;;;;;1.65;1.38;;;24.10;97.20;;;;;;1741230;28;20199;-73
2022/08/07 08:33:37;;;;;;;1.75;1.65;;;24.20;97.20;;;;;;1741227;28;20286;-73
2022/08/07 08:34:31;;;;;;;1.52;1.42;;;24.20;97.20;;;;;;1741290;28;20191;-73
2022/08/07 08:35:24;;;;;;;2.33;1.50;;;24.20;97.20;;;;;;1741717;28;20211;-73
2022/08/07 08:36:18;;;;;;;1.60;1.50;;;24.30;97.20;;;;;;1741585;28;20809;-73
2022/08/07 08:37:12;;;;;;;1.80;1.27;;;24.30;97.20;;;;;;1741380;28;20206;-73
2022/08/07 08:38:05;;;;;;;1.45;1.35;;;24.30;97.20;;;;;;1741474;28;20477;-73
2022/08/07 08:38:59;;;;;;;1.50;1.40;;;24.40;97.20;;;;;;1741140;28;20196;-73
2022/08/07 08:39:53;;;;;;;3.70;1.30;;;24.40;97.20;;;;;;1741437;28;20199;-73
2022/08/07 08:40:50;;;;;;;1.83;1.47;;;24.40;97.20;;;;;;1741575;28;20461;-73
2022/08/07 08:41:49;;;;;;;1.57;1.30;;;24.50;97.20;;;;;;1741772;28;20467;-73
2022/08/07 08:42:45;;;;;;;1.90;1.57;;;24.50;97.20;;;;;;1741895;28;20445;-73
2022/08/07 08:43:45;;;;;;;2.53;1.50;;;24.50;97.20;;;;;;1741896;28;20848;-73
2022/08/07 08:44:42;;;;;;;1.70;1.43;;;24.50;97.20;;;;;;1741813;28;20682;-73
2022/08/07 08:45:42;;;;;;;3.13;1.47;;;24.60;97.20;;;;;;1741845;28;20450;-73
2022/08/07 08:46:42;;;;;;;2.35;1.52;;;24.60;97.20;;;;;;1741413;28;20441;-73
2022/08/07 08:47:42;;;;;;;1.93;1.47;;;24.60;97.20;;;;;;1741821;28;20306;-73
2022/08/07 08:48:39;;;;;;;2.43;1.50;;;24.60;97.20;;;;;;1741744;28;20929;-73
2022/08/07 08:49:41;;;;;;;1.73;1.55;;;24.60;97.20;;;;;;1741828;28;20430;-73
2022/08/07 08:50:39;;;;;;;1.80;1.50;;;24.60;97.20;;;;;;1741799;28;20204;-73
2022/08/07 08:51:35;;;;;;;2.03;1.93;;;24.70;97.20;;;;;;1741791;28;20807;-73
2022/08/07 08:52:31;;;;;;;2.42;1.58;;;24.70;97.20;;;;;;1741837;28;20819;-73
2022/08/07 08:53:33;;;;;;;3.83;1.93;;;24.70;97.20;;;;;;1741747;28;20203;-73
2022/08/07 08:54:30;;;;;;;2.10;2.00;;;24.70;97.20;;;;;;1741770;28;20441;-73
2022/08/07 08:55:27;;;;;;;2.50;2.17;;;24.70;97.20;;;;;;1741820;28;20438;-73
2022/08/07 08:56:23;;;;;;;2.27;2.10;;;24.70;97.20;;;;;;1741718;28;20457;-73
2022/08/07 08:57:22;;;;;;;2.73;2.53;;;24.70;97.20;;;;;;1741495;28;20445;-73
2022/08/07 08:58:18;;;;;;;1.65;1.55;;;24.80;97.20;;;;;;1741609;28;20477;-73
2022/08/07 08:59:27;;;;;;;2.30;2.10;;;24.80;97.20;;;;;;1741686;28;20206;-73
2022/08/07 09:00:19;;;;;;;2.43;2.27;;;24.80;97.20;;;;;;1741701;28;20449;-73
2022/08/07 09:01:17;;;;;;;2.47;2.00;;;24.80;97.20;;;;;;1741517;28;20480;-73
2022/08/07 09:02:17;;;;;;;5.17;4.77;;;24.90;97.20;;;;;;1741676;28;20445;-73
2022/08/07 09:03:18;;;;;;;2.57;2.37;;;24.90;97.20;;;;;;1741698;28;20474;-73
2022/08/07 09:04:18;;;;;;;3.43;1.90;;;24.90;97.20;;;;;;1741725;28;20441;-76
2022/08/07 09:05:32;;;;;;;1.60;1.50;;;25.00;97.20;;;;;;1741601;28;20526;-73
2022/08/07 09:06:36;;;;;;;2.40;1.47;;;25.00;97.20;;;;;;1741602;28;20449;-73
2022/08/07 09:07:36;;;;;;;2.13;1.40;;;25.00;97.20;;;;;;1741651;28;20445;-73
2022/08/07 09:08:40;;;;;;;1.77;1.33;;;25.00;97.20;;;;;;1741609;28;20449;-73
2022/08/07 09:09:43;;;;;;;1.60;1.50;;;25.00;97.20;;;;;;1741689;28;20438;-73
2022/08/07 09:10:43;;;;;;;1.63;1.40;;;25.10;97.20;;;;;;1741662;28;20441;-72
2022/08/07 09:11:41;;;;;;;1.33;1.23;;;25.10;97.20;;;;;;1741684;28;20500;-73
2022/08/07 09:12:41;;;;;;;2.43;1.43;;;25.10;97.20;;;;;;1741625;28;20938;-72
2022/08/07 09:13:40;;;;;;;1.50;1.40;;;25.10;97.20;;;;;;1741610;28;20445;-73
2022/08/07 09:14:35;;;;;;;3.63;2.70;;;25.10;97.20;;;;;;1741585;28;20203;-73
2022/08/07 09:15:44;;;;;;;2.23;1.80;;;25.10;97.20;;;;;;1741595;28;20449;-73
2022/08/07 09:16:47;;;;;;;1.50;1.40;;;25.10;97.20;;;;;;1741392;28;20453;-73
2022/08/07 09:17:46;;;;;;;1.77;1.67;;;25.10;97.20;;;;;;1741796;28;20460;-72
2022/08/07 09:18:59;;;;;;;2.40;2.20;;;25.00;97.20;;;;;;1741647;28;20207;-73
2022/08/07 09:19:57;;;;;;;1.70;1.60;;;25.00;97.20;;;;;;1741582;28;20521;-73
2022/08/07 09:20:58;;;;;;;2.23;1.43;;;25.00;97.20;;;;;;1740481;28;20473;-73
2022/08/07 09:21:59;;;;;;;1.63;1.53;;;25.00;97.20;;;;;;1741554;28;20442;-73
2022/08/07 09:23:00;;;;;;;2.33;1.70;;;25.10;97.20;;;;;;1741502;28;20438;-72
2022/08/07 09:24:00;;;;;;;2.50;1.40;;;25.10;97.20;;;;;;1741604;28;20859;-73
2022/08/07 09:24:59;;;;;;;2.03;1.60;;;25.10;97.20;;;;;;1741556;28;20210;-72
2022/08/07 09:26:09;;;;;;;2.20;1.50;;;25.10;97.20;;;;;;1741555;28;20437;-73
2022/08/07 09:27:16;;;;;;;1.60;1.50;;;25.10;97.20;;;;;;1741365;28;20442;-73
2022/08/07 09:28:17;;;;;;;1.70;1.43;;;25.10;97.20;;;;;;1741416;28;20453;-73
2022/08/07 09:29:18;;;;;;;1.37;1.27;;;25.10;97.20;;;;;;1741521;28;20458;-73
2022/08/07 09:30:11;;;;;;;1.63;1.50;;;25.20;97.20;;;;;;1741465;28;20484;-73
2022/08/07 09:31:09;;;;;;;4.50;1.50;;;25.20;97.20;;;;;;1741479;28;20465;-72
2022/08/07 09:32:22;;;;;;;1.47;1.20;;;25.20;97.20;;;;;;1741576;28;20438;-73
2022/08/07 09:33:30;;;;;;;2.00;1.47;;;25.20;97.20;;;;;;1734643;28;20993;-73
2022/08/07 09:34:26;;;;;;;1.50;1.23;;;25.30;97.20;;;;;;1734765;28;20906;-73
2022/08/07 09:35:31;;;;;;;1.87;1.77;;;25.30;97.20;;;;;;1734579;28;20446;-73
2022/08/07 09:36:29;;;;;;;1.90;1.40;;;25.30;97.20;;;;;;1734534;28;20450;-73
2022/08/07 09:37:28;;;;;;;2.13;1.37;;;25.30;97.20;;;;;;1734312;28;20451;-73
2022/08/07 09:38:29;;;;;;;1.43;1.20;;;25.30;97.20;;;;;;1734537;28;20498;-72
2022/08/07 09:39:29;;;;;;;1.83;1.20;;;25.40;97.20;;;;;;1734613;28;20450;-73
2022/08/07 09:40:28;;;;;;;1.30;1.20;;;25.40;97.20;;;;;;1734689;28;20858;-73
2022/08/07 09:41:29;;;;;;;4.33;1.20;;;25.40;97.20;;;;;;1734580;28;20461;-72
2022/08/07 09:42:33;;;;;;;2.03;1.17;;;25.40;97.20;;;;;;1734566;28;20447;-73
2022/08/07 09:43:35;;;;;;;1.40;1.13;;;25.50;97.20;;;;;;1734597;28;20446;-72
2022/08/07 09:44:41;;;;;;;1.70;1.60;;;25.50;97.20;;;;;;1734565;28;20858;-72
2022/08/07 09:45:41;;;;;;;1.20;1.10;;;25.50;97.20;;;;;;1734508;28;20446;-72
2022/08/07 09:46:43;;;;;;;1.30;1.20;;;25.50;97.20;;;;;;1734196;28;20438;-73
2022/08/07 09:47:43;;;;;;;2.35;1.23;;;25.50;97.20;;;;;;1734571;28;20446;-73
2022/08/07 09:48:46;;;;;;;1.20;1.10;;;25.60;97.20;;;;;;1734500;28;20207;-73
2022/08/07 09:49:52;;;;;;;1.30;1.20;;;25.60;97.20;;;;;;1734681;28;20438;-73
2022/08/07 09:50:55;;;;;;;1.97;1.07;;;25.60;97.20;;;;;;1734515;28;20273;-73
2022/08/07 09:51:59;;;;;;;1.10;0.90;;;25.60;97.00;;;;;;1734576;28;20934;-72
2022/08/07 09:52:59;;;;;;;2.90;1.10;;;25.60;97.00;;;;;;1734508;28;20261;-73
2022/08/07 09:53:54;;;;;;;1.05;0.95;;;25.70;96.60;;;;;;1734522;28;20200;-73
2022/08/07 09:54:49;;;;;;;1.00;0.90;;;25.70;96.60;;;;;;1734574;28;20203;-73